createdAt,value
2022-09-29T00:02:13.820Z,14.97
2022-09-29T00:04:41.111Z,14.17
2022-09-29T00:07:08.232Z,14.10
2022-09-29T00:09:35.361Z,14.53
2022-09-29T00:12:02.735Z,14.23
2022-09-29T00:14:29.915Z,13.53
2022-09-29T00:16:57.282Z,15.50
2022-09-29T00:19:25.542Z,14.27
2022-09-29T00:21:52.802Z,14.63
2022-09-29T00:24:20.029Z,14.37
2022-09-29T00:26:47.634Z,16.17
2022-09-29T00:29:14.764Z,15.83
2022-09-29T00:31:41.970Z,14.53
2022-09-29T00:34:09.169Z,14.10
2022-09-29T00:36:36.286Z,13.80
2022-09-29T00:39:03.448Z,13.90
2022-09-29T00:41:33.757Z,13.47
2022-09-29T00:44:00.948Z,13.93
2022-09-29T00:46:37.274Z,14.23
2022-09-29T00:49:24.635Z,14.03
2022-09-29T00:51:59.735Z,16.43
2022-09-29T00:54:30.832Z,13.90
2022-09-29T00:56:58.602Z,14.30
2022-09-29T00:59:28.577Z,16.00
2022-09-29T01:01:55.752Z,16.00
2022-09-29T01:04:22.983Z,17.00
2022-09-29T01:06:51.393Z,15.63
2022-09-29T01:09:20.358Z,16.50
2022-09-29T01:11:47.814Z,15.90
2022-09-29T01:14:16.148Z,15.63
2022-09-29T01:16:43.378Z,15.57
2022-09-29T01:19:12.522Z,15.90
2022-09-29T01:21:54.987Z,16.57
2022-09-29T01:24:22.160Z,15.57
2022-09-29T01:26:52.164Z,17.80
2022-09-29T01:29:19.293Z,16.90
2022-09-29T01:31:46.459Z,16.77
2022-09-29T01:34:19.578Z,17.47
2022-09-29T01:36:51.925Z,16.47
2022-09-29T01:39:24.919Z,23.33
2022-09-29T01:41:54.417Z,17.97
2022-09-29T01:44:37.036Z,18.47
2022-09-29T01:47:08.139Z,17.87
2022-09-29T01:49:37.870Z,19.67
2022-09-29T01:52:09.417Z,18.37
2022-09-29T01:54:48.436Z,19.40
2022-09-29T01:57:22.858Z,16.77
2022-09-29T01:59:56.751Z,19.90
2022-09-29T02:02:28.595Z,17.20
2022-09-29T02:04:58.375Z,17.37
2022-09-29T02:07:28.420Z,20.53
2022-09-29T02:09:59.786Z,18.03
2022-09-29T02:12:28.200Z,18.53
2022-09-29T02:14:56.151Z,18.77
2022-09-29T02:17:25.889Z,24.77
2022-09-29T02:19:53.667Z,20.50
2022-09-29T02:22:21.132Z,20.67
2022-09-29T02:24:49.623Z,18.87
2022-09-29T02:27:16.903Z,20.97
2022-09-29T02:29:44.578Z,19.33
2022-09-29T02:32:12.913Z,18.63
2022-09-29T02:34:43.580Z,22.57
2022-09-29T02:37:18.470Z,20.40
2022-09-29T02:40:01.883Z,19.83
2022-09-29T02:42:33.846Z,19.87
2022-09-29T02:45:16.224Z,17.93
2022-09-29T02:48:01.961Z,19.13
2022-09-29T02:50:38.308Z,21.43
2022-09-29T02:53:19.439Z,18.30
2022-09-29T02:55:57.866Z,22.83
2022-09-29T02:58:31.860Z,17.33
2022-09-29T03:01:00.333Z,20.43
2022-09-29T03:03:27.661Z,19.67
2022-09-29T03:05:54.890Z,20.47
2022-09-29T03:08:22.018Z,17.67
2022-09-29T03:10:49.716Z,18.17
2022-09-29T03:13:16.845Z,19.73
2022-09-29T03:15:44.023Z,18.73
2022-09-29T03:18:11.148Z,17.60
2022-09-29T03:20:38.324Z,18.50
2022-09-29T03:23:05.598Z,16.60
2022-09-29T03:25:32.721Z,19.33
2022-09-29T03:27:59.834Z,20.37
2022-09-29T03:30:27.097Z,17.83
2022-09-29T03:32:54.232Z,17.60
2022-09-29T03:35:21.418Z,18.37
2022-09-29T03:37:48.523Z,18.87
2022-09-29T03:40:15.730Z,19.30
2022-09-29T03:42:42.892Z,18.93
2022-09-29T03:45:10.370Z,16.57
2022-09-29T03:47:39.404Z,18.13
2022-09-29T03:50:06.728Z,20.17
2022-09-29T03:52:33.861Z,19.73
2022-09-29T03:55:00.955Z,19.03
2022-09-29T03:57:28.077Z,17.47
2022-09-29T03:59:56.023Z,18.67
2022-09-29T04:02:23.435Z,18.07
2022-09-29T04:04:50.576Z,19.67
2022-09-29T04:07:17.736Z,19.43
2022-09-29T04:09:44.971Z,18.87
2022-09-29T04:12:12.117Z,16.10
2022-09-29T04:14:38.841Z,20.13
2022-09-29T04:17:05.576Z,17.80
2022-09-29T04:19:32.321Z,16.40
2022-09-29T04:21:59.189Z,17.50
2022-09-29T04:24:26.234Z,17.93
2022-09-29T04:26:53.006Z,18.20
2022-09-29T04:29:19.752Z,17.63
2022-09-29T04:31:46.596Z,18.37
2022-09-29T04:34:13.279Z,18.40
2022-09-29T04:36:41.090Z,18.73
2022-09-29T04:39:07.877Z,16.57
2022-09-29T04:41:36.054Z,18.73
2022-09-29T04:44:02.813Z,17.27
2022-09-29T04:46:29.910Z,17.67
2022-09-29T04:48:56.635Z,15.47
2022-09-29T04:51:23.434Z,16.13
2022-09-29T04:53:50.148Z,17.60
2022-09-29T04:56:16.833Z,16.13
2022-09-29T04:58:43.563Z,19.53
2022-09-29T05:01:15.277Z,14.77
2022-09-29T05:03:42.556Z,17.40
2022-09-29T05:06:10.159Z,22.53
2022-09-29T05:08:37.409Z,18.17
2022-09-29T05:11:07.663Z,17.93
2022-09-29T05:13:34.825Z,23.50
2022-09-29T05:16:02.425Z,18.20
2022-09-29T05:18:30.220Z,20.70
2022-09-29T05:21:25.960Z,17.50
2022-09-29T05:23:47.478Z,19.80
2022-09-29T05:26:14.478Z,19.47
2022-09-29T05:28:46.400Z,17.80
2022-09-29T05:31:14.369Z,16.77
2022-09-29T05:33:41.435Z,19.50
2022-09-29T05:36:11.016Z,18.90
2022-09-29T05:38:38.491Z,19.57
2022-09-29T05:41:12.086Z,18.53
2022-09-29T05:43:39.812Z,15.87
2022-09-29T05:46:10.676Z,17.63
2022-09-29T05:48:38.192Z,17.73
2022-09-29T05:51:11.554Z,20.60
2022-09-29T05:53:39.151Z,18.47
2022-09-29T05:56:07.241Z,19.17
2022-09-29T05:58:37.462Z,17.10
2022-09-29T06:01:09.947Z,17.57
2022-09-29T06:03:37.774Z,19.47
2022-09-29T06:06:14.036Z,16.00
2022-09-29T06:08:41.591Z,18.53
2022-09-29T06:11:10.156Z,17.00
2022-09-29T06:13:45.120Z,20.27
2022-09-29T06:16:12.920Z,19.10
2022-09-29T06:18:41.294Z,18.43
2022-09-29T06:21:14.759Z,20.03
2022-09-29T06:23:41.944Z,18.57
2022-09-29T06:26:11.079Z,18.60
2022-09-29T06:28:39.317Z,17.90
2022-09-29T06:31:09.481Z,19.53
2022-09-29T06:33:36.963Z,20.47
2022-09-29T06:36:27.337Z,21.27
2022-09-29T06:38:55.733Z,19.13
2022-09-29T06:41:23.166Z,20.77
2022-09-29T06:43:51.503Z,19.73
2022-09-29T06:46:18.775Z,23.30
2022-09-29T06:48:46.247Z,27.47
2022-09-29T06:51:14.806Z,22.07
2022-09-29T06:53:41.942Z,22.13
2022-09-29T06:56:10.087Z,20.73
2022-09-29T06:58:37.697Z,19.10
2022-09-29T07:01:06.156Z,21.33
2022-09-29T07:03:33.761Z,23.17
2022-09-29T07:06:19.200Z,21.17
2022-09-29T07:08:47.119Z,23.43
2022-09-29T07:11:15.061Z,25.37
2022-09-29T07:13:42.179Z,21.50
2022-09-29T07:16:11.175Z,20.63
2022-09-29T07:18:40.184Z,26.90
2022-09-29T07:21:10.053Z,20.93
2022-09-29T07:23:37.747Z,27.60
2022-09-29T07:26:05.829Z,22.57
2022-09-29T07:28:33.199Z,22.37
2022-09-29T07:31:13.724Z,22.33
2022-09-29T07:33:42.367Z,20.83
2022-09-29T07:36:09.637Z,23.97
2022-09-29T07:38:36.814Z,26.87
2022-09-29T07:41:05.636Z,24.20
2022-09-29T07:43:33.027Z,24.13
2022-09-29T07:46:03.617Z,24.43
2022-09-29T07:48:32.288Z,26.70
2022-09-29T07:51:10.947Z,22.80
2022-09-29T07:53:38.468Z,24.57
2022-09-29T07:56:12.157Z,23.10
2022-09-29T07:58:40.534Z,30.83
2022-09-29T08:01:24.361Z,23.07
2022-09-29T08:03:52.861Z,23.90
2022-09-29T08:06:19.974Z,21.57
2022-09-29T08:08:58.935Z,20.03
2022-09-29T08:11:32.367Z,22.20
2022-09-29T08:13:59.987Z,20.63
2022-09-29T08:16:27.286Z,25.93
2022-09-29T08:18:54.650Z,19.50
2022-09-29T08:21:21.795Z,18.07
2022-09-29T08:23:49.143Z,17.70
2022-09-29T08:26:17.521Z,17.37
2022-09-29T08:28:45.326Z,18.03
2022-09-29T08:31:21.289Z,18.13
2022-09-29T08:33:50.008Z,17.67
2022-09-29T08:36:17.228Z,21.97
2022-09-29T08:38:48.993Z,16.93
2022-09-29T08:41:34.331Z,18.57
2022-09-29T08:44:23.108Z,16.20
2022-09-29T08:47:08.888Z,16.17
2022-09-29T08:49:43.423Z,15.43
2022-09-29T08:52:17.325Z,15.10
2022-09-29T08:54:48.677Z,17.17
2022-09-29T08:57:18.089Z,16.93
2022-09-29T08:59:48.044Z,15.17
2022-09-29T09:02:21.687Z,13.93
2022-09-29T09:05:10.004Z,18.30
2022-09-29T09:07:37.958Z,16.43
2022-09-29T09:10:12.987Z,16.43
2022-09-29T09:12:49.134Z,14.57
2022-09-29T09:15:34.320Z,15.53
2022-09-29T09:18:04.502Z,14.10
2022-09-29T09:20:35.123Z,14.40
2022-09-29T09:23:22.506Z,14.13
2022-09-29T09:25:55.662Z,15.73
2022-09-29T09:28:28.476Z,18.37
2022-09-29T09:30:58.754Z,13.67
2022-09-29T09:33:32.464Z,15.20
2022-09-29T09:36:31.401Z,13.63
2022-09-29T09:39:03.295Z,13.73
2022-09-29T09:41:35.779Z,11.37
2022-09-29T09:44:16.258Z,12.13
2022-09-29T09:46:47.522Z,11.97
2022-09-29T09:49:14.866Z,14.33
2022-09-29T09:51:57.358Z,15.97
2022-09-29T09:54:53.910Z,13.00
2022-09-29T09:57:39.246Z,14.70
2022-09-29T10:00:11.828Z,10.73
2022-09-29T10:02:44.385Z,11.77
2022-09-29T10:05:16.323Z,12.63
2022-09-29T10:07:43.875Z,12.83
2022-09-29T10:10:18.589Z,15.63
2022-09-29T10:12:45.733Z,12.10
2022-09-29T10:15:19.339Z,14.77
2022-09-29T10:17:47.811Z,13.23
2022-09-29T10:20:28.969Z,11.63
2022-09-29T10:23:04.585Z,8.80
2022-09-29T10:25:31.706Z,10.07
2022-09-29T10:27:58.814Z,10.00
2022-09-29T10:30:36.194Z,10.83
2022-09-29T10:33:04.470Z,7.70
2022-09-29T10:35:37.392Z,11.87
2022-09-29T10:38:11.097Z,8.37
2022-09-29T10:40:39.351Z,8.60
2022-09-29T10:43:24.937Z,8.60
2022-09-29T10:45:53.917Z,9.10
2022-09-29T10:48:21.111Z,8.20
2022-09-29T10:50:48.423Z,7.43
2022-09-29T10:53:36.018Z,7.50
2022-09-29T10:56:19.565Z,7.60
2022-09-29T10:59:00.362Z,11.33
2022-09-29T11:01:32.219Z,8.30
2022-09-29T11:04:04.394Z,9.50
2022-09-29T11:06:35.601Z,4.90
2022-09-29T11:09:04.594Z,11.80
2022-09-29T11:11:31.793Z,5.70
2022-09-29T11:13:59.491Z,5.50
2022-09-29T11:16:34.496Z,6.63
2022-09-29T11:19:13.167Z,6.00
2022-09-29T11:21:43.456Z,8.73
2022-09-29T11:24:24.147Z,5.63
2022-09-29T11:26:54.312Z,7.07
2022-09-29T11:29:29.008Z,6.70
2022-09-29T11:32:05.836Z,4.63
2022-09-29T11:34:34.237Z,5.87
2022-09-29T11:37:30.720Z,6.37
2022-09-29T11:40:12.110Z,6.13
2022-09-29T11:42:52.802Z,5.87
2022-09-29T11:45:23.997Z,5.70
2022-09-29T11:48:02.537Z,6.03
2022-09-29T11:50:29.736Z,4.17
2022-09-29T11:53:11.987Z,4.27
2022-09-29T11:55:54.190Z,7.97
2022-09-29T11:58:24.439Z,4.73
2022-09-29T12:00:54.331Z,5.27
2022-09-29T12:03:24.281Z,4.73
2022-09-29T12:05:54.212Z,4.67
2022-09-29T12:08:39.859Z,5.87
2022-09-29T12:11:44.365Z,10.83
2022-09-29T12:14:16.998Z,4.03
2022-09-29T12:16:52.605Z,5.60
2022-09-29T12:19:22.161Z,3.77
2022-09-29T12:21:50.739Z,5.67
2022-09-29T12:24:38.620Z,3.47
2022-09-29T12:27:12.779Z,2.93
2022-09-29T12:29:43.017Z,3.13
2022-09-29T12:32:18.981Z,4.13
2022-09-29T12:34:49.484Z,3.90
2022-09-29T12:37:22.235Z,3.87
2022-09-29T12:40:18.417Z,5.83
2022-09-29T12:43:04.343Z,3.37
2022-09-29T12:45:50.429Z,2.60
2022-09-29T12:48:27.131Z,2.90
2022-09-29T12:51:01.468Z,4.40
2022-09-29T12:53:34.995Z,4.40
2022-09-29T12:56:08.381Z,3.97
2022-09-29T12:58:35.518Z,5.30
2022-09-29T13:01:21.566Z,3.37
2022-09-29T13:04:13.474Z,3.63
2022-09-29T13:06:52.263Z,5.77
2022-09-29T13:09:26.504Z,3.63
2022-09-29T13:11:59.729Z,2.77
2022-09-29T13:14:32.612Z,5.63
2022-09-29T13:17:08.845Z,3.70
2022-09-29T13:19:56.100Z,3.27
2022-09-29T13:22:42.027Z,3.77
2022-09-29T13:25:18.291Z,3.80
2022-09-29T13:27:46.281Z,4.33
2022-09-29T13:30:14.483Z,5.90
2022-09-29T13:32:42.944Z,2.77
2022-09-29T13:35:28.864Z,2.97
2022-09-29T13:37:57.715Z,2.17
2022-09-29T13:40:26.553Z,2.47
2022-09-29T13:43:00.669Z,2.80
2022-09-29T13:45:31.506Z,2.43
2022-09-29T13:48:02.029Z,2.13
2022-09-29T13:50:44.533Z,1.90
2022-09-29T13:53:33.486Z,2.60
2022-09-29T13:56:04.171Z,4.10
2022-09-29T13:58:32.541Z,2.60
2022-09-29T14:01:00.971Z,3.70
2022-09-29T14:03:40.772Z,4.57
2022-09-29T14:06:39.566Z,2.13
2022-09-29T14:09:08.535Z,6.93
2022-09-29T14:11:37.920Z,4.40
2022-09-29T14:14:07.868Z,2.87
2022-09-29T14:16:39.370Z,2.87
2022-09-29T14:19:09.454Z,2.90
2022-09-29T14:21:57.037Z,3.77
2022-09-29T14:24:45.576Z,7.00
2022-09-29T14:27:15.574Z,3.70
2022-09-29T14:29:44.340Z,3.10
2022-09-29T14:32:15.794Z,2.70
2022-09-29T14:34:43.143Z,2.40
2022-09-29T14:37:15.391Z,4.07
2022-09-29T14:40:02.630Z,5.57
2022-09-29T14:42:30.156Z,2.47
2022-09-29T14:45:16.066Z,2.87
2022-09-29T14:48:07.235Z,14.57
2022-09-29T14:50:57.389Z,8.17
2022-09-29T14:53:32.399Z,12.23
2022-09-29T14:56:14.778Z,11.47
2022-09-29T14:58:43.240Z,7.20
2022-09-29T15:01:10.379Z,6.33
2022-09-29T15:03:45.831Z,6.20
2022-09-29T15:06:14.309Z,10.23
2022-09-29T15:08:42.789Z,3.60
2022-09-29T15:11:28.834Z,3.33
2022-09-29T15:13:57.109Z,4.87
2022-09-29T15:17:02.727Z,5.03
2022-09-29T15:19:36.287Z,5.60
2022-09-29T15:22:18.962Z,2.40
2022-09-29T15:24:54.074Z,2.50
2022-09-29T15:27:21.446Z,3.60
2022-09-29T15:29:49.408Z,2.17
2022-09-29T15:32:34.399Z,2.87
2022-09-29T15:35:07.224Z,2.60
2022-09-29T15:37:56.258Z,3.60
2022-09-29T15:40:27.896Z,2.07
2022-09-29T15:42:55.971Z,2.20
2022-09-29T15:45:27.504Z,4.77
2022-09-29T15:48:02.812Z,2.70
2022-09-29T15:50:35.656Z,2.97
2022-09-29T15:53:04.913Z,9.33
2022-09-29T15:55:32.587Z,3.67
2022-09-29T15:58:02.138Z,3.10
2022-09-29T16:00:39.383Z,3.80
2022-09-29T16:03:06.473Z,2.90
2022-09-29T16:05:43.068Z,3.17
2022-09-29T16:08:23.136Z,5.30
2022-09-29T16:10:55.261Z,8.43
2022-09-29T16:13:28.818Z,13.63
2022-09-29T16:15:57.997Z,9.97
2022-09-29T16:18:26.666Z,8.10
2022-09-29T16:20:57.991Z,6.40
2022-09-29T16:23:29.181Z,8.10
2022-09-29T16:26:16.573Z,5.80
2022-09-29T16:29:00.386Z,4.83
2022-09-29T16:31:29.010Z,9.23
2022-09-29T16:33:57.680Z,13.93
2022-09-29T16:36:27.177Z,15.20
2022-09-29T16:38:55.387Z,24.50
2022-09-29T16:41:36.667Z,16.73
2022-09-29T16:44:17.925Z,9.30
2022-09-29T16:46:47.442Z,9.77
2022-09-29T16:49:15.818Z,7.03
2022-09-29T16:51:44.374Z,10.50
2022-09-29T16:54:37.699Z,4.83
2022-09-29T16:57:25.626Z,3.70
2022-09-29T16:59:54.112Z,5.90
2022-09-29T17:02:22.729Z,6.93
2022-09-29T17:04:50.879Z,3.60
2022-09-29T17:07:19.031Z,3.57
2022-09-29T17:09:47.646Z,4.80
2022-09-29T17:12:15.433Z,5.83
2022-09-29T17:14:43.711Z,4.00
2022-09-29T17:17:16.702Z,9.10
2022-09-29T17:19:43.879Z,8.73
2022-09-29T17:22:21.875Z,4.83
2022-09-29T17:24:49.052Z,6.10
2022-09-29T17:27:34.863Z,3.93
2022-09-29T17:30:02.007Z,3.17
2022-09-29T17:32:29.116Z,6.50
2022-09-29T17:34:56.355Z,3.97
2022-09-29T17:37:23.475Z,4.20
2022-09-29T17:39:54.370Z,3.80
2022-09-29T17:42:25.714Z,3.13
2022-09-29T17:44:52.931Z,3.40
2022-09-29T17:47:28.857Z,4.23
2022-09-29T17:49:57.514Z,4.77
2022-09-29T17:52:25.724Z,4.13
2022-09-29T17:54:55.265Z,4.47
2022-09-29T17:57:26.066Z,3.50
2022-09-29T17:59:53.948Z,7.33
2022-09-29T18:02:21.496Z,8.90
2022-09-29T18:04:49.525Z,9.20
2022-09-29T18:07:16.939Z,7.47
2022-09-29T18:09:44.975Z,4.67
2022-09-29T18:12:12.217Z,4.97
2022-09-29T18:14:39.424Z,4.97
2022-09-29T18:17:06.584Z,4.73
2022-09-29T18:19:40.226Z,9.03
2022-09-29T18:22:08.147Z,9.57
2022-09-29T18:24:35.329Z,10.97
2022-09-29T18:27:02.558Z,9.10
2022-09-29T18:29:34.098Z,10.40
2022-09-29T18:32:01.326Z,9.03
2022-09-29T18:34:31.098Z,12.40
2022-09-29T18:36:58.392Z,10.57
2022-09-29T18:39:25.527Z,8.30
2022-09-29T18:41:52.623Z,6.70
2022-09-29T18:44:20.513Z,6.47
2022-09-29T18:46:47.751Z,8.60
2022-09-29T18:49:15.426Z,6.40
2022-09-29T18:51:42.547Z,5.07
2022-09-29T18:54:09.852Z,5.23
2022-09-29T18:56:37.123Z,6.87
2022-09-29T18:59:07.665Z,5.70
2022-09-29T19:01:34.933Z,6.20
2022-09-29T19:04:02.344Z,7.23
2022-09-29T19:06:29.457Z,6.00
2022-09-29T19:08:56.790Z,8.53
2022-09-29T19:11:25.498Z,6.77
2022-09-29T19:13:55.322Z,6.83
2022-09-29T19:16:23.694Z,6.63
2022-09-29T19:18:51.119Z,7.37
2022-09-29T19:21:18.546Z,9.20
2022-09-29T19:23:48.568Z,9.37
2022-09-29T19:26:24.547Z,6.07
2022-09-29T19:28:51.795Z,6.77
2022-09-29T19:31:20.052Z,7.93
2022-09-29T19:33:51.013Z,11.60
2022-09-29T19:36:19.616Z,8.60
2022-09-29T19:38:47.517Z,9.00
2022-09-29T19:41:16.016Z,9.80
2022-09-29T19:43:43.635Z,45.47
2022-09-29T19:46:11.508Z,39.80
2022-09-29T19:48:39.211Z,25.87
2022-09-29T19:51:25.082Z,22.20
2022-09-29T19:54:10.516Z,16.73
2022-09-29T19:56:39.337Z,16.17
2022-09-29T19:59:10.204Z,17.17
2022-09-29T20:01:37.619Z,17.17
2022-09-29T20:04:04.770Z,13.40
2022-09-29T20:06:35.233Z,12.73
2022-09-29T20:09:03.267Z,12.70
2022-09-29T20:11:33.439Z,10.77
2022-09-29T20:14:03.589Z,9.77
2022-09-29T20:16:35.434Z,9.97
2022-09-29T20:19:02.914Z,12.73
2022-09-29T20:21:30.407Z,8.40
2022-09-29T20:23:58.594Z,9.27
2022-09-29T20:26:26.464Z,10.73
2022-09-29T20:28:54.040Z,11.47
2022-09-29T20:31:21.747Z,12.53
2022-09-29T20:33:49.479Z,11.97
2022-09-29T20:36:16.839Z,8.53
2022-09-29T20:38:47.123Z,10.00
2022-09-29T20:41:15.543Z,9.00
2022-09-29T20:43:44.307Z,10.63
2022-09-29T20:46:12.994Z,10.47
2022-09-29T20:48:41.683Z,11.30
2022-09-29T20:51:15.087Z,12.33
2022-09-29T20:53:50.424Z,11.13
2022-09-29T20:56:18.002Z,13.20
2022-09-29T20:58:45.826Z,10.20
2022-09-29T21:01:21.188Z,12.37
2022-09-29T21:03:49.121Z,10.13
2022-09-29T21:06:16.359Z,11.33
2022-09-29T21:08:43.725Z,13.73
2022-09-29T21:11:11.297Z,13.77
2022-09-29T21:13:38.763Z,11.03
2022-09-29T21:16:06.141Z,12.23
2022-09-29T21:18:34.049Z,15.53
2022-09-29T21:21:03.003Z,12.40
2022-09-29T21:23:33.830Z,10.47
2022-09-29T21:26:02.824Z,12.67
2022-09-29T21:28:30.198Z,12.53
2022-09-29T21:31:07.696Z,11.70
2022-09-29T21:33:37.046Z,12.27
2022-09-29T21:36:05.454Z,14.87
2022-09-29T21:38:33.942Z,14.30
2022-09-29T21:41:07.651Z,23.17
2022-09-29T21:43:35.891Z,33.90
2022-09-29T21:46:07.228Z,22.77
2022-09-29T21:48:35.161Z,13.00
2022-09-29T21:51:09.431Z,13.20
2022-09-29T21:53:37.784Z,14.53
2022-09-29T21:56:09.871Z,14.47
2022-09-29T21:58:37.282Z,19.47
2022-09-29T22:01:09.094Z,25.60
2022-09-29T22:03:39.646Z,25.30
2022-09-29T22:06:11.018Z,19.97
2022-09-29T22:08:38.199Z,19.60
2022-09-29T22:11:05.312Z,17.20
2022-09-29T22:13:32.825Z,16.27
2022-09-29T22:16:06.435Z,14.70
2022-09-29T22:18:41.656Z,17.63
2022-09-29T22:21:10.424Z,19.40
2022-09-29T22:23:37.845Z,22.80
2022-09-29T22:26:05.227Z,15.70
2022-09-29T22:28:32.547Z,17.20
2022-09-29T22:31:09.564Z,14.13
2022-09-29T22:33:38.048Z,13.07
2022-09-29T22:36:05.557Z,14.40
2022-09-29T22:38:34.431Z,14.10
2022-09-29T22:41:01.588Z,14.73
2022-09-29T22:43:28.702Z,13.73
2022-09-29T22:45:55.848Z,16.07
2022-09-29T22:48:22.996Z,13.43
2022-09-29T22:50:50.266Z,14.23
2022-09-29T22:53:17.369Z,13.37
2022-09-29T22:55:44.526Z,14.20
2022-09-29T22:58:11.866Z,12.63
2022-09-29T23:00:40.157Z,13.07
2022-09-29T23:03:08.484Z,13.23
2022-09-29T23:05:36.126Z,11.40
2022-09-29T23:08:03.555Z,11.67
2022-09-29T23:10:30.834Z,11.73
2022-09-29T23:12:59.026Z,11.67
2022-09-29T23:15:26.268Z,13.83
2022-09-29T23:17:53.436Z,14.10
2022-09-29T23:20:20.574Z,12.63
2022-09-29T23:22:47.680Z,13.30
2022-09-29T23:25:14.854Z,17.17
2022-09-29T23:27:42.000Z,12.63
2022-09-29T23:30:09.441Z,13.33
2022-09-29T23:32:36.587Z,14.70
2022-09-29T23:35:03.785Z,13.90
2022-09-29T23:37:50.865Z,12.90
2022-09-29T23:40:18.025Z,15.33
2022-09-29T23:42:45.370Z,13.03
2022-09-29T23:45:12.496Z,12.03
2022-09-29T23:47:39.631Z,13.10
2022-09-29T23:50:07.006Z,14.33
2022-09-29T23:52:34.575Z,11.90
2022-09-29T23:55:01.775Z,11.60
2022-09-29T23:57:28.970Z,13.10
2022-09-29T23:59:56.115Z,12.53
